sensor_id;sensor_type;location;lat;lon;timestamp;P1;durP1;ratioP1;P2;durP2;ratioP2
69712;SDS011;56980;51.826;4.424;2022-11-15T00:00:04;54.50;;;17.70;;
69712;SDS011;56980;51.826;4.424;2022-11-15T00:02:30;58.35;;;19.48;;
69712;SDS011;56980;51.826;4.424;2022-11-15T00:04:55;62.47;;;19.53;;
69712;SDS011;56980;51.826;4.424;2022-11-15T00:07:21;60.00;;;21.50;;
69712;SDS011;56980;51.826;4.424;2022-11-15T00:09:46;63.03;;;21.05;;
69712;SDS011;56980;51.826;4.424;2022-11-15T00:12:12;57.57;;;20.10;;
69712;SDS011;56980;51.826;4.424;2022-11-15T00:14:37;62.87;;;20.17;;
69712;SDS011;56980;51.826;4.424;2022-11-15T00:17:02;67.20;;;21.40;;
69712;SDS011;56980;51.826;4.424;2022-11-15T00:19:28;70.95;;;21.08;;
69712;SDS011;56980;51.826;4.424;2022-11-15T00:21:53;70.03;;;21.97;;
69712;SDS011;56980;51.826;4.424;2022-11-15T00:24:19;68.37;;;22.23;;
69712;SDS011;56980;51.826;4.424;2022-11-15T00:26:44;72.20;;;23.47;;
69712;SDS011;56980;51.826;4.424;2022-11-15T00:29:09;77.07;;;24.85;;
69712;SDS011;56980;51.826;4.424;2022-11-15T00:31:35;67.72;;;23.90;;
69712;SDS011;56980;51.826;4.424;2022-11-15T00:34:00;78.33;;;23.03;;
69712;SDS011;56980;51.826;4.424;2022-11-15T00:36:26;80.27;;;24.10;;
69712;SDS011;56980;51.826;4.424;2022-11-15T00:38:51;75.10;;;24.23;;
69712;SDS011;56980;51.826;4.424;2022-11-15T00:41:16;77.53;;;23.70;;
69712;SDS011;56980;51.826;4.424;2022-11-15T00:43:42;79.07;;;26.87;;
69712;SDS011;56980;51.826;4.424;2022-11-15T00:46:08;77.47;;;25.38;;
69712;SDS011;56980;51.826;4.424;2022-11-15T00:48:34;85.32;;;25.58;;
69712;SDS011;56980;51.826;4.424;2022-11-15T00:51:00;80.50;;;25.73;;
69712;SDS011;56980;51.826;4.424;2022-11-15T00:53:26;75.37;;;23.43;;
69712;SDS011;56980;51.826;4.424;2022-11-15T00:55:51;79.13;;;25.13;;
69712;SDS011;56980;51.826;4.424;2022-11-15T00:58:17;81.72;;;25.85;;
69712;SDS011;56980;51.826;4.424;2022-11-15T01:00:42;77.20;;;24.90;;
69712;SDS011;56980;51.826;4.424;2022-11-15T01:03:08;76.37;;;26.17;;
69712;SDS011;56980;51.826;4.424;2022-11-15T01:05:33;78.97;;;25.00;;
69712;SDS011;56980;51.826;4.424;2022-11-15T01:07:59;77.45;;;26.90;;
69712;SDS011;56980;51.826;4.424;2022-11-15T01:10:24;74.50;;;26.20;;
69712;SDS011;56980;51.826;4.424;2022-11-15T01:12:50;85.03;;;25.77;;
69712;SDS011;56980;51.826;4.424;2022-11-15T01:15:16;73.22;;;25.80;;
69712;SDS011;56980;51.826;4.424;2022-11-15T01:17:42;68.33;;;23.47;;
69712;SDS011;56980;51.826;4.424;2022-11-15T01:20:07;70.60;;;23.70;;
69712;SDS011;56980;51.826;4.424;2022-11-15T01:22:33;68.40;;;23.77;;
69712;SDS011;56980;51.826;4.424;2022-11-15T01:24:59;69.82;;;22.75;;
69712;SDS011;56980;51.826;4.424;2022-11-15T01:27:24;65.13;;;23.88;;
69712;SDS011;56980;51.826;4.424;2022-11-15T01:29:50;63.67;;;24.00;;
69712;SDS011;56980;51.826;4.424;2022-11-15T01:32:15;65.80;;;24.17;;
69712;SDS011;56980;51.826;4.424;2022-11-15T01:34:41;60.83;;;23.17;;
69712;SDS011;56980;51.826;4.424;2022-11-15T01:37:06;61.85;;;23.20;;
69712;SDS011;56980;51.826;4.424;2022-11-15T01:39:31;66.37;;;22.63;;
69712;SDS011;56980;51.826;4.424;2022-11-15T01:41:57;66.97;;;23.27;;
69712;SDS011;56980;51.826;4.424;2022-11-15T01:47:10;60.63;;;23.10;;
69712;SDS011;56980;51.826;4.424;2022-11-15T01:49:42;56.10;;;22.80;;
69712;SDS011;56980;51.826;4.424;2022-11-15T01:52:17;54.47;;;22.38;;
69712;SDS011;56980;51.826;4.424;2022-11-15T01:54:46;55.13;;;22.70;;
69712;SDS011;56980;51.826;4.424;2022-11-15T01:57:13;52.00;;;21.88;;
69712;SDS011;56980;51.826;4.424;2022-11-15T01:59:39;57.53;;;21.83;;
69712;SDS011;56980;51.826;4.424;2022-11-15T02:02:08;64.13;;;22.40;;
69712;SDS011;56980;51.826;4.424;2022-11-15T02:04:35;61.43;;;23.83;;
69712;SDS011;56980;51.826;4.424;2022-11-15T02:07:05;56.95;;;23.58;;
69712;SDS011;56980;51.826;4.424;2022-11-15T02:09:35;58.67;;;23.35;;
69712;SDS011;56980;51.826;4.424;2022-11-15T02:12:01;59.08;;;22.58;;
69712;SDS011;56980;51.826;4.424;2022-11-15T02:14:26;64.77;;;23.53;;
69712;SDS011;56980;51.826;4.424;2022-11-15T02:25:40;50.25;;;21.08;;
69712;SDS011;56980;51.826;4.424;2022-11-15T02:28:27;53.10;;;20.13;;
69712;SDS011;56980;51.826;4.424;2022-11-15T02:34:03;43.57;;;18.33;;
69712;SDS011;56980;51.826;4.424;2022-11-15T02:39:11;44.80;;;19.17;;
69712;SDS011;56980;51.826;4.424;2022-11-15T02:44:21;42.30;;;18.02;;
69712;SDS011;56980;51.826;4.424;2022-11-15T02:46:55;41.93;;;18.43;;
69712;SDS011;56980;51.826;4.424;2022-11-15T02:49:46;39.33;;;16.88;;
69712;SDS011;56980;51.826;4.424;2022-11-15T02:52:16;34.47;;;16.60;;
69712;SDS011;56980;51.826;4.424;2022-11-15T02:54:42;34.20;;;17.10;;
69712;SDS011;56980;51.826;4.424;2022-11-15T02:57:18;32.13;;;15.40;;
69712;SDS011;56980;51.826;4.424;2022-11-15T02:59:56;31.53;;;15.27;;
69712;SDS011;56980;51.826;4.424;2022-11-15T03:02:47;31.60;;;15.73;;
69712;SDS011;56980;51.826;4.424;2022-11-15T03:05:36;29.17;;;14.00;;
69712;SDS011;56980;51.826;4.424;2022-11-15T03:08:20;29.42;;;13.68;;
69712;SDS011;56980;51.826;4.424;2022-11-15T03:11:15;24.48;;;13.20;;
69712;SDS011;56980;51.826;4.424;2022-11-15T03:18:59;29.15;;;13.23;;
69712;SDS011;56980;51.826;4.424;2022-11-15T03:21:29;25.45;;;13.35;;
69712;SDS011;56980;51.826;4.424;2022-11-15T03:23:57;32.67;;;13.60;;
69712;SDS011;56980;51.826;4.424;2022-11-15T03:26:26;26.58;;;12.73;;
69712;SDS011;56980;51.826;4.424;2022-11-15T03:28:55;25.73;;;12.27;;
69712;SDS011;56980;51.826;4.424;2022-11-15T03:31:26;27.33;;;12.73;;
69712;SDS011;56980;51.826;4.424;2022-11-15T03:34:14;25.45;;;12.25;;
69712;SDS011;56980;51.826;4.424;2022-11-15T03:36:56;24.83;;;11.70;;
69712;SDS011;56980;51.826;4.424;2022-11-15T03:39:22;23.77;;;12.17;;
69712;SDS011;56980;51.826;4.424;2022-11-15T03:47:20;23.10;;;10.53;;
69712;SDS011;56980;51.826;4.424;2022-11-15T03:49:51;23.63;;;10.80;;
69712;SDS011;56980;51.826;4.424;2022-11-15T03:52:21;21.85;;;11.13;;
69712;SDS011;56980;51.826;4.424;2022-11-15T03:54:54;25.77;;;10.38;;
69712;SDS011;56980;51.826;4.424;2022-11-15T03:57:21;20.98;;;10.20;;
69712;SDS011;56980;51.826;4.424;2022-11-15T03:59:46;19.87;;;10.37;;
69712;SDS011;56980;51.826;4.424;2022-11-15T04:02:11;26.13;;;10.87;;
69712;SDS011;56980;51.826;4.424;2022-11-15T04:04:38;22.98;;;11.63;;
69712;SDS011;56980;51.826;4.424;2022-11-15T04:07:04;30.43;;;10.70;;
69712;SDS011;56980;51.826;4.424;2022-11-15T04:09:29;21.30;;;10.65;;
69712;SDS011;56980;51.826;4.424;2022-11-15T04:11:55;27.40;;;11.30;;
69712;SDS011;56980;51.826;4.424;2022-11-15T04:14:20;25.55;;;10.98;;
69712;SDS011;56980;51.826;4.424;2022-11-15T04:16:46;23.70;;;10.57;;
69712;SDS011;56980;51.826;4.424;2022-11-15T04:19:11;22.23;;;10.77;;
69712;SDS011;56980;51.826;4.424;2022-11-15T04:21:55;22.13;;;10.55;;
69712;SDS011;56980;51.826;4.424;2022-11-15T04:24:39;20.37;;;10.63;;
69712;SDS011;56980;51.826;4.424;2022-11-15T04:27:04;20.45;;;10.57;;
69712;SDS011;56980;51.826;4.424;2022-11-15T04:29:30;26.42;;;10.90;;
69712;SDS011;56980;51.826;4.424;2022-11-15T04:32:02;22.42;;;11.43;;
69712;SDS011;56980;51.826;4.424;2022-11-15T04:34:28;18.83;;;10.38;;
69712;SDS011;56980;51.826;4.424;2022-11-15T04:36:54;21.08;;;10.75;;
69712;SDS011;56980;51.826;4.424;2022-11-15T04:39:38;20.57;;;9.93;;
69712;SDS011;56980;51.826;4.424;2022-11-15T04:42:07;23.13;;;10.65;;
69712;SDS011;56980;51.826;4.424;2022-11-15T04:44:33;25.33;;;10.00;;
69712;SDS011;56980;51.826;4.424;2022-11-15T04:46:58;19.90;;;10.10;;
69712;SDS011;56980;51.826;4.424;2022-11-15T04:49:24;16.93;;;9.13;;
69712;SDS011;56980;51.826;4.424;2022-11-15T04:51:49;19.42;;;10.07;;
69712;SDS011;56980;51.826;4.424;2022-11-15T04:54:15;27.17;;;10.02;;
69712;SDS011;56980;51.826;4.424;2022-11-15T05:00:06;29.15;;;9.00;;
69712;SDS011;56980;51.826;4.424;2022-11-15T05:02:34;18.98;;;8.77;;
69712;SDS011;56980;51.826;4.424;2022-11-15T05:05:35;21.02;;;8.55;;
69712;SDS011;56980;51.826;4.424;2022-11-15T05:08:00;21.55;;;8.82;;
69712;SDS011;56980;51.826;4.424;2022-11-15T05:10:26;20.23;;;8.60;;
69712;SDS011;56980;51.826;4.424;2022-11-15T05:12:51;12.87;;;7.17;;
69712;SDS011;56980;51.826;4.424;2022-11-15T05:15:17;15.50;;;8.53;;
69712;SDS011;56980;51.826;4.424;2022-11-15T05:17:42;15.60;;;7.80;;
69712;SDS011;56980;51.826;4.424;2022-11-15T05:20:08;20.58;;;7.07;;
69712;SDS011;56980;51.826;4.424;2022-11-15T05:22:34;15.63;;;7.30;;
69712;SDS011;56980;51.826;4.424;2022-11-15T05:24:59;16.80;;;7.30;;
69712;SDS011;56980;51.826;4.424;2022-11-15T05:27:24;13.17;;;6.37;;
69712;SDS011;56980;51.826;4.424;2022-11-15T05:30:02;14.30;;;6.15;;
69712;SDS011;56980;51.826;4.424;2022-11-15T05:32:27;12.98;;;6.47;;
69712;SDS011;56980;51.826;4.424;2022-11-15T05:34:54;16.42;;;6.47;;
69712;SDS011;56980;51.826;4.424;2022-11-15T05:37:19;12.20;;;5.38;;
69712;SDS011;56980;51.826;4.424;2022-11-15T05:39:45;12.53;;;5.80;;
69712;SDS011;56980;51.826;4.424;2022-11-15T05:42:14;16.13;;;5.72;;
69712;SDS011;56980;51.826;4.424;2022-11-15T05:44:41;13.43;;;5.40;;
69712;SDS011;56980;51.826;4.424;2022-11-15T05:47:12;12.27;;;5.18;;
69712;SDS011;56980;51.826;4.424;2022-11-15T05:49:44;17.80;;;5.78;;
69712;SDS011;56980;51.826;4.424;2022-11-15T05:52:11;16.45;;;5.63;;
69712;SDS011;56980;51.826;4.424;2022-11-15T05:54:41;8.77;;;4.82;;
69712;SDS011;56980;51.826;4.424;2022-11-15T05:57:08;11.70;;;5.97;;
69712;SDS011;56980;51.826;4.424;2022-11-15T05:59:33;15.25;;;5.38;;
69712;SDS011;56980;51.826;4.424;2022-11-15T06:02:00;15.73;;;5.43;;
69712;SDS011;56980;51.826;4.424;2022-11-15T06:04:25;13.90;;;5.67;;
69712;SDS011;56980;51.826;4.424;2022-11-15T06:06:51;12.93;;;4.87;;
69712;SDS011;56980;51.826;4.424;2022-11-15T06:09:16;12.10;;;5.07;;
69712;SDS011;56980;51.826;4.424;2022-11-15T06:11:42;12.75;;;5.10;;
69712;SDS011;56980;51.826;4.424;2022-11-15T06:14:07;14.50;;;5.00;;
69712;SDS011;56980;51.826;4.424;2022-11-15T06:16:32;12.10;;;4.57;;
69712;SDS011;56980;51.826;4.424;2022-11-15T06:18:58;9.07;;;4.73;;
69712;SDS011;56980;51.826;4.424;2022-11-15T06:21:23;16.23;;;5.18;;
69712;SDS011;56980;51.826;4.424;2022-11-15T06:23:49;9.67;;;4.17;;
69712;SDS011;56980;51.826;4.424;2022-11-15T06:26:14;15.63;;;4.33;;
69712;SDS011;56980;51.826;4.424;2022-11-15T06:28:39;16.77;;;4.60;;
69712;SDS011;56980;51.826;4.424;2022-11-15T06:31:05;16.27;;;4.87;;
69712;SDS011;56980;51.826;4.424;2022-11-15T06:33:33;13.90;;;4.13;;
69712;SDS011;56980;51.826;4.424;2022-11-15T06:36:05;7.97;;;4.07;;
69712;SDS011;56980;51.826;4.424;2022-11-15T06:38:32;12.82;;;4.25;;
69712;SDS011;56980;51.826;4.424;2022-11-15T06:41:02;10.65;;;3.88;;
69712;SDS011;56980;51.826;4.424;2022-11-15T06:43:28;7.97;;;4.32;;
69712;SDS011;56980;51.826;4.424;2022-11-15T06:45:54;11.00;;;4.18;;
69712;SDS011;56980;51.826;4.424;2022-11-15T06:48:19;9.40;;;3.47;;
69712;SDS011;56980;51.826;4.424;2022-11-15T06:50:50;9.00;;;3.63;;
69712;SDS011;56980;51.826;4.424;2022-11-15T06:53:19;10.98;;;3.65;;
69712;SDS011;56980;51.826;4.424;2022-11-15T06:55:44;7.83;;;3.80;;
69712;SDS011;56980;51.826;4.424;2022-11-15T06:58:10;15.90;;;3.80;;
69712;SDS011;56980;51.826;4.424;2022-11-15T07:00:35;10.50;;;3.67;;
69712;SDS011;56980;51.826;4.424;2022-11-15T07:03:01;9.90;;;3.60;;
69712;SDS011;56980;51.826;4.424;2022-11-15T07:05:27;8.52;;;3.92;;
69712;SDS011;56980;51.826;4.424;2022-11-15T07:07:53;12.47;;;4.23;;
69712;SDS011;56980;51.826;4.424;2022-11-15T07:10:20;7.47;;;3.30;;
69712;SDS011;56980;51.826;4.424;2022-11-15T07:12:49;8.65;;;3.65;;
69712;SDS011;56980;51.826;4.424;2022-11-15T07:15:15;8.77;;;4.00;;
69712;SDS011;56980;51.826;4.424;2022-11-15T07:17:41;10.85;;;3.65;;
69712;SDS011;56980;51.826;4.424;2022-11-15T07:20:12;12.27;;;4.60;;
69712;SDS011;56980;51.826;4.424;2022-11-15T07:22:44;9.53;;;4.23;;
69712;SDS011;56980;51.826;4.424;2022-11-15T07:25:10;11.57;;;4.97;;
69712;SDS011;56980;51.826;4.424;2022-11-15T07:27:36;12.38;;;4.90;;
69712;SDS011;56980;51.826;4.424;2022-11-15T07:30:02;9.60;;;4.53;;
69712;SDS011;56980;51.826;4.424;2022-11-15T07:32:28;9.73;;;4.83;;
69712;SDS011;56980;51.826;4.424;2022-11-15T07:34:54;10.70;;;4.32;;
69712;SDS011;56980;51.826;4.424;2022-11-15T07:37:19;10.18;;;4.20;;
69712;SDS011;56980;51.826;4.424;2022-11-15T07:39:45;12.50;;;4.60;;
69712;SDS011;56980;51.826;4.424;2022-11-15T07:42:10;10.67;;;4.33;;
69712;SDS011;56980;51.826;4.424;2022-11-15T07:44:54;13.13;;;4.68;;
69712;SDS011;56980;51.826;4.424;2022-11-15T07:47:20;8.57;;;3.97;;
69712;SDS011;56980;51.826;4.424;2022-11-15T07:49:46;11.57;;;3.67;;
69712;SDS011;56980;51.826;4.424;2022-11-15T07:52:12;10.82;;;3.70;;
69712;SDS011;56980;51.826;4.424;2022-11-15T07:54:38;11.47;;;4.03;;
69712;SDS011;56980;51.826;4.424;2022-11-15T07:57:03;6.32;;;3.40;;
69712;SDS011;56980;51.826;4.424;2022-11-15T07:59:29;8.37;;;3.20;;
69712;SDS011;56980;51.826;4.424;2022-11-15T08:01:55;9.25;;;3.67;;
69712;SDS011;56980;51.826;4.424;2022-11-15T08:04:20;9.77;;;4.63;;
69712;SDS011;56980;51.826;4.424;2022-11-15T08:06:46;13.50;;;5.13;;
69712;SDS011;56980;51.826;4.424;2022-11-15T08:09:11;10.97;;;5.23;;
69712;SDS011;56980;51.826;4.424;2022-11-15T08:11:36;12.93;;;5.22;;
69712;SDS011;56980;51.826;4.424;2022-11-15T08:14:02;9.37;;;5.47;;
69712;SDS011;56980;51.826;4.424;2022-11-15T08:16:27;12.63;;;5.30;;
69712;SDS011;56980;51.826;4.424;2022-11-15T08:18:53;11.50;;;5.17;;
69712;SDS011;56980;51.826;4.424;2022-11-15T08:21:18;11.40;;;5.27;;
69712;SDS011;56980;51.826;4.424;2022-11-15T08:23:45;13.32;;;4.85;;
69712;SDS011;56980;51.826;4.424;2022-11-15T08:26:11;12.68;;;5.13;;
69712;SDS011;56980;51.826;4.424;2022-11-15T08:28:36;15.85;;;5.10;;
69712;SDS011;56980;51.826;4.424;2022-11-15T08:31:02;9.77;;;4.47;;
69712;SDS011;56980;51.826;4.424;2022-11-15T08:33:28;9.20;;;5.40;;
69712;SDS011;56980;51.826;4.424;2022-11-15T08:35:58;17.77;;;5.85;;
69712;SDS011;56980;51.826;4.424;2022-11-15T08:38:24;9.15;;;5.00;;
69712;SDS011;56980;51.826;4.424;2022-11-15T08:40:54;12.57;;;4.70;;
69712;SDS011;56980;51.826;4.424;2022-11-15T08:43:26;9.57;;;4.43;;
69712;SDS011;56980;51.826;4.424;2022-11-15T08:45:51;10.13;;;4.50;;
69712;SDS011;56980;51.826;4.424;2022-11-15T08:48:20;7.90;;;4.78;;
69712;SDS011;56980;51.826;4.424;2022-11-15T08:50:45;15.80;;;4.70;;
69712;SDS011;56980;51.826;4.424;2022-11-15T08:53:12;9.50;;;4.30;;
69712;SDS011;56980;51.826;4.424;2022-11-15T08:55:37;16.63;;;4.97;;
69712;SDS011;56980;51.826;4.424;2022-11-15T08:58:04;8.10;;;4.45;;
69712;SDS011;56980;51.826;4.424;2022-11-15T09:00:38;11.52;;;5.45;;
69712;SDS011;56980;51.826;4.424;2022-11-15T09:03:04;9.70;;;5.00;;
69712;SDS011;56980;51.826;4.424;2022-11-15T09:05:30;10.32;;;4.18;;
69712;SDS011;56980;51.826;4.424;2022-11-15T09:07:56;9.17;;;4.40;;
69712;SDS011;56980;51.826;4.424;2022-11-15T09:10:21;9.87;;;4.43;;
69712;SDS011;56980;51.826;4.424;2022-11-15T09:12:47;10.20;;;4.20;;
69712;SDS011;56980;51.826;4.424;2022-11-15T09:15:13;12.43;;;4.68;;
69712;SDS011;56980;51.826;4.424;2022-11-15T09:17:40;9.23;;;4.38;;
69712;SDS011;56980;51.826;4.424;2022-11-15T09:20:06;9.02;;;4.20;;
69712;SDS011;56980;51.826;4.424;2022-11-15T09:22:32;8.70;;;4.57;;
69712;SDS011;56980;51.826;4.424;2022-11-15T09:24:58;10.18;;;4.38;;
69712;SDS011;56980;51.826;4.424;2022-11-15T09:27:27;13.97;;;4.53;;
69712;SDS011;56980;51.826;4.424;2022-11-15T09:29:57;12.93;;;3.92;;
69712;SDS011;56980;51.826;4.424;2022-11-15T09:32:22;9.87;;;4.67;;
69712;SDS011;56980;51.826;4.424;2022-11-15T09:34:48;10.10;;;3.90;;
69712;SDS011;56980;51.826;4.424;2022-11-15T09:37:14;14.95;;;4.38;;
69712;SDS011;56980;51.826;4.424;2022-11-15T09:39:40;6.45;;;3.42;;
69712;SDS011;56980;51.826;4.424;2022-11-15T09:45:15;10.90;;;3.55;;
69712;SDS011;56980;51.826;4.424;2022-11-15T09:53:14;5.85;;;3.33;;
69712;SDS011;56980;51.826;4.424;2022-11-15T09:56:05;6.05;;;3.33;;
69712;SDS011;56980;51.826;4.424;2022-11-15T10:04:37;11.07;;;3.40;;
69712;SDS011;56980;51.826;4.424;2022-11-15T10:12:48;7.70;;;2.70;;
69712;SDS011;56980;51.826;4.424;2022-11-15T10:15:16;8.65;;;2.67;;
69712;SDS011;56980;51.826;4.424;2022-11-15T10:20:29;9.77;;;2.17;;
69712;SDS011;56980;51.826;4.424;2022-11-15T10:23:01;9.05;;;2.40;;
69712;SDS011;56980;51.826;4.424;2022-11-15T10:25:32;8.88;;;2.03;;
69712;SDS011;56980;51.826;4.424;2022-11-15T10:28:00;7.47;;;2.50;;
69712;SDS011;56980;51.826;4.424;2022-11-15T10:30:37;5.95;;;1.80;;
69712;SDS011;56980;51.826;4.424;2022-11-15T10:33:19;6.38;;;2.20;;
69712;SDS011;56980;51.826;4.424;2022-11-15T10:36:14;4.60;;;2.13;;
69712;SDS011;56980;51.826;4.424;2022-11-15T10:44:00;7.82;;;1.92;;
69712;SDS011;56980;51.826;4.424;2022-11-15T10:46:36;6.05;;;1.98;;
69712;SDS011;56980;51.826;4.424;2022-11-15T10:49:19;5.63;;;1.73;;
69712;SDS011;56980;51.826;4.424;2022-11-15T10:51:53;6.50;;;1.73;;
69712;SDS011;56980;51.826;4.424;2022-11-15T10:57:52;5.68;;;1.63;;
69712;SDS011;56980;51.826;4.424;2022-11-15T11:00:32;5.22;;;1.50;;
69712;SDS011;56980;51.826;4.424;2022-11-15T11:03:01;5.57;;;1.30;;
69712;SDS011;56980;51.826;4.424;2022-11-15T11:05:32;5.15;;;1.67;;
69712;SDS011;56980;51.826;4.424;2022-11-15T11:08:21;4.50;;;1.73;;
69712;SDS011;56980;51.826;4.424;2022-11-15T11:10:52;8.68;;;1.83;;
69712;SDS011;56980;51.826;4.424;2022-11-15T11:13:23;8.60;;;1.13;;
69712;SDS011;56980;51.826;4.424;2022-11-15T11:15:56;3.65;;;1.10;;
69712;SDS011;56980;51.826;4.424;2022-11-15T11:18:25;10.07;;;1.60;;
69712;SDS011;56980;51.826;4.424;2022-11-15T11:20:57;3.33;;;1.07;;
69712;SDS011;56980;51.826;4.424;2022-11-15T11:23:33;4.93;;;1.20;;
69712;SDS011;56980;51.826;4.424;2022-11-15T11:31:42;5.45;;;1.10;;
69712;SDS011;56980;51.826;4.424;2022-11-15T11:37:56;5.05;;;1.10;;
69712;SDS011;56980;51.826;4.424;2022-11-15T11:48:43;10.53;;;1.20;;
69712;SDS011;56980;51.826;4.424;2022-11-15T11:57:09;4.50;;;0.85;;
69712;SDS011;56980;51.826;4.424;2022-11-15T11:59:49;5.85;;;0.88;;
69712;SDS011;56980;51.826;4.424;2022-11-15T12:02:28;8.68;;;1.10;;
69712;SDS011;56980;51.826;4.424;2022-11-15T12:05:26;5.38;;;0.95;;
69712;SDS011;56980;51.826;4.424;2022-11-15T12:08:04;7.63;;;1.83;;
69712;SDS011;56980;51.826;4.424;2022-11-15T12:10:45;8.98;;;0.95;;
69712;SDS011;56980;51.826;4.424;2022-11-15T12:13:19;6.88;;;0.93;;
69712;SDS011;56980;51.826;4.424;2022-11-15T12:16:32;9.30;;;1.83;;
69712;SDS011;56980;51.826;4.424;2022-11-15T12:18:41;4.40;;;0.80;;
69712;SDS011;56980;51.826;4.424;2022-11-15T12:27:14;7.15;;;1.10;;
69712;SDS011;56980;51.826;4.424;2022-11-15T12:29:45;7.60;;;1.98;;
69712;SDS011;56980;51.826;4.424;2022-11-15T12:32:24;7.32;;;1.23;;
69712;SDS011;56980;51.826;4.424;2022-11-15T12:34:50;4.37;;;0.73;;
69712;SDS011;56980;51.826;4.424;2022-11-15T12:42:56;6.65;;;1.02;;
69712;SDS011;56980;51.826;4.424;2022-11-15T12:45:35;7.30;;;1.02;;
69712;SDS011;56980;51.826;4.424;2022-11-15T12:56:09;3.67;;;0.80;;
69712;SDS011;56980;51.826;4.424;2022-11-15T13:04:14;4.85;;;0.80;;
69712;SDS011;56980;51.826;4.424;2022-11-15T13:06:44;3.90;;;0.90;;
69712;SDS011;56980;51.826;4.424;2022-11-15T13:14:52;6.20;;;0.87;;
69712;SDS011;56980;51.826;4.424;2022-11-15T13:19:45;7.43;;;1.00;;
69712;SDS011;56980;51.826;4.424;2022-11-15T13:22:11;2.35;;;0.90;;
69712;SDS011;56980;51.826;4.424;2022-11-15T13:24:55;5.82;;;0.80;;
69712;SDS011;56980;51.826;4.424;2022-11-15T13:27:21;7.45;;;1.20;;
69712;SDS011;56980;51.826;4.424;2022-11-15T13:29:50;4.60;;;1.05;;
69712;SDS011;56980;51.826;4.424;2022-11-15T13:32:15;7.25;;;1.00;;
69712;SDS011;56980;51.826;4.424;2022-11-15T13:34:48;3.20;;;0.80;;
69712;SDS011;56980;51.826;4.424;2022-11-15T13:39:46;5.83;;;0.80;;
69712;SDS011;56980;51.826;4.424;2022-11-15T13:42:15;5.32;;;1.00;;
69712;SDS011;56980;51.826;4.424;2022-11-15T13:45:02;3.05;;;0.88;;
69712;SDS011;56980;51.826;4.424;2022-11-15T13:47:29;2.97;;;0.93;;
69712;SDS011;56980;51.826;4.424;2022-11-15T13:49:56;3.72;;;1.20;;
69712;SDS011;56980;51.826;4.424;2022-11-15T13:52:22;4.50;;;1.10;;
69712;SDS011;56980;51.826;4.424;2022-11-15T13:55:02;5.55;;;0.90;;
69712;SDS011;56980;51.826;4.424;2022-11-15T13:57:40;6.85;;;1.05;;
69712;SDS011;56980;51.826;4.424;2022-11-15T14:03:06;4.25;;;0.80;;
69712;SDS011;56980;51.826;4.424;2022-11-15T14:05:40;6.07;;;1.27;;
69712;SDS011;56980;51.826;4.424;2022-11-15T14:10:40;4.53;;;1.05;;
69712;SDS011;56980;51.826;4.424;2022-11-15T14:13:26;3.30;;;1.20;;
69712;SDS011;56980;51.826;4.424;2022-11-15T14:16:12;4.80;;;0.80;;
69712;SDS011;56980;51.826;4.424;2022-11-15T14:21:15;5.75;;;1.75;;
69712;SDS011;56980;51.826;4.424;2022-11-15T14:23:41;3.58;;;0.77;;
69712;SDS011;56980;51.826;4.424;2022-11-15T14:26:10;2.27;;;0.90;;
69712;SDS011;56980;51.826;4.424;2022-11-15T14:28:51;4.20;;;1.08;;
69712;SDS011;56980;51.826;4.424;2022-11-15T14:31:16;4.83;;;1.10;;
69712;SDS011;56980;51.826;4.424;2022-11-15T14:33:41;4.57;;;1.13;;
69712;SDS011;56980;51.826;4.424;2022-11-15T14:38:35;4.15;;;1.80;;
69712;SDS011;56980;51.826;4.424;2022-11-15T14:41:04;7.10;;;2.53;;
69712;SDS011;56980;51.826;4.424;2022-11-15T14:43:30;3.63;;;1.50;;
69712;SDS011;56980;51.826;4.424;2022-11-15T14:45:56;4.18;;;1.10;;
69712;SDS011;56980;51.826;4.424;2022-11-15T14:48:25;3.22;;;1.10;;
69712;SDS011;56980;51.826;4.424;2022-11-15T14:50:50;4.97;;;1.50;;
69712;SDS011;56980;51.826;4.424;2022-11-15T14:53:16;4.03;;;0.73;;
69712;SDS011;56980;51.826;4.424;2022-11-15T14:55:42;6.73;;;1.00;;
69712;SDS011;56980;51.826;4.424;2022-11-15T14:58:08;7.28;;;1.30;;
69712;SDS011;56980;51.826;4.424;2022-11-15T15:00:38;6.05;;;1.48;;
69712;SDS011;56980;51.826;4.424;2022-11-15T15:03:05;4.78;;;1.30;;
69712;SDS011;56980;51.826;4.424;2022-11-15T15:05:41;1.90;;;1.20;;
69712;SDS011;56980;51.826;4.424;2022-11-15T15:08:08;13.30;;;4.50;;
69712;SDS011;56980;51.826;4.424;2022-11-15T15:10:35;5.70;;;3.20;;
69712;SDS011;56980;51.826;4.424;2022-11-15T15:13:08;10.90;;;2.22;;
69712;SDS011;56980;51.826;4.424;2022-11-15T15:15:41;3.97;;;1.63;;
69712;SDS011;56980;51.826;4.424;2022-11-15T15:18:08;4.93;;;2.00;;
69712;SDS011;56980;51.826;4.424;2022-11-15T15:20:37;3.35;;;1.70;;
69712;SDS011;56980;51.826;4.424;2022-11-15T15:23:05;3.63;;;1.60;;
69712;SDS011;56980;51.826;4.424;2022-11-15T15:25:34;6.45;;;1.73;;
69712;SDS011;56980;51.826;4.424;2022-11-15T15:28:00;4.35;;;1.67;;
69712;SDS011;56980;51.826;4.424;2022-11-15T15:30:27;5.97;;;1.70;;
69712;SDS011;56980;51.826;4.424;2022-11-15T15:32:53;5.93;;;1.75;;
69712;SDS011;56980;51.826;4.424;2022-11-15T15:35:19;3.27;;;1.20;;
69712;SDS011;56980;51.826;4.424;2022-11-15T15:37:46;8.05;;;1.52;;
69712;SDS011;56980;51.826;4.424;2022-11-15T15:40:19;6.85;;;3.33;;
69712;SDS011;56980;51.826;4.424;2022-11-15T15:42:47;8.30;;;1.83;;
69712;SDS011;56980;51.826;4.424;2022-11-15T15:45:13;8.05;;;2.25;;
69712;SDS011;56980;51.826;4.424;2022-11-15T15:47:40;5.68;;;2.25;;
69712;SDS011;56980;51.826;4.424;2022-11-15T15:50:12;9.00;;;2.58;;
69712;SDS011;56980;51.826;4.424;2022-11-15T15:52:39;16.03;;;4.60;;
69712;SDS011;56980;51.826;4.424;2022-11-15T15:55:05;17.00;;;7.50;;
69712;SDS011;56980;51.826;4.424;2022-11-15T15:57:30;18.07;;;6.50;;
69712;SDS011;56980;51.826;4.424;2022-11-15T15:59:56;26.70;;;11.67;;
69712;SDS011;56980;51.826;4.424;2022-11-15T16:02:21;21.40;;;7.97;;
69712;SDS011;56980;51.826;4.424;2022-11-15T16:04:46;45.43;;;16.60;;
69712;SDS011;56980;51.826;4.424;2022-11-15T16:07:20;17.80;;;7.13;;
69712;SDS011;56980;51.826;4.424;2022-11-15T16:09:48;7.47;;;2.83;;
69712;SDS011;56980;51.826;4.424;2022-11-15T16:12:31;19.58;;;7.75;;
69712;SDS011;56980;51.826;4.424;2022-11-15T16:15:00;14.73;;;6.05;;
69712;SDS011;56980;51.826;4.424;2022-11-15T16:17:28;14.25;;;6.30;;
69712;SDS011;56980;51.826;4.424;2022-11-15T16:19:57;19.73;;;7.85;;
69712;SDS011;56980;51.826;4.424;2022-11-15T16:22:22;15.83;;;5.80;;
69712;SDS011;56980;51.826;4.424;2022-11-15T16:24:48;18.07;;;8.43;;
69712;SDS011;56980;51.826;4.424;2022-11-15T16:27:17;25.03;;;11.63;;
69712;SDS011;56980;51.826;4.424;2022-11-15T16:29:44;26.50;;;12.05;;
69712;SDS011;56980;51.826;4.424;2022-11-15T16:32:11;23.58;;;10.38;;
69712;SDS011;56980;51.826;4.424;2022-11-15T16:34:36;19.87;;;9.23;;
69712;SDS011;56980;51.826;4.424;2022-11-15T16:37:02;20.00;;;9.82;;
69712;SDS011;56980;51.826;4.424;2022-11-15T16:39:27;17.80;;;9.90;;
69712;SDS011;56980;51.826;4.424;2022-11-15T16:41:55;10.88;;;5.75;;
69712;SDS011;56980;51.826;4.424;2022-11-15T16:44:23;14.75;;;6.78;;
69712;SDS011;56980;51.826;4.424;2022-11-15T16:46:49;10.68;;;5.93;;
69712;SDS011;56980;51.826;4.424;2022-11-15T16:49:18;10.43;;;4.40;;
69712;SDS011;56980;51.826;4.424;2022-11-15T16:51:44;7.97;;;3.40;;
69712;SDS011;56980;51.826;4.424;2022-11-15T16:54:11;10.15;;;5.35;;
69712;SDS011;56980;51.826;4.424;2022-11-15T16:56:37;9.88;;;4.75;;
69712;SDS011;56980;51.826;4.424;2022-11-15T16:59:03;14.70;;;8.27;;
69712;SDS011;56980;51.826;4.424;2022-11-15T17:01:30;9.10;;;4.43;;